sensor_id;sensor_type;location;lat;lon;timestamp;temperature;humidity
39957;DHT22;48483;44.640;7.494;2023-02-01T00:00:12;6.10;99.90
39957;DHT22;48483;44.640;7.494;2023-02-01T00:02:40;6.00;99.90
39957;DHT22;48483;44.640;7.494;2023-02-01T00:05:07;6.00;99.90
39957;DHT22;48483;44.640;7.494;2023-02-01T00:07:34;5.90;99.90
39957;DHT22;48483;44.640;7.494;2023-02-01T00:10:01;5.80;99.90
39957;DHT22;48483;44.640;7.494;2023-02-01T00:12:29;5.80;99.90
39957;DHT22;48483;44.640;7.494;2023-02-01T00:14:56;5.70;99.90
39957;DHT22;48483;44.640;7.494;2023-02-01T00:17:23;5.70;99.90
39957;DHT22;48483;44.640;7.494;2023-02-01T00:19:50;5.60;99.90
39957;DHT22;48483;44.640;7.494;2023-02-01T00:22:17;5.60;99.90
39957;DHT22;48483;44.640;7.494;2023-02-01T00:24:44;5.50;99.90
39957;DHT22;48483;44.640;7.494;2023-02-01T00:27:10;5.50;99.90
39957;DHT22;48483;44.640;7.494;2023-02-01T00:29:39;5.50;99.90
39957;DHT22;48483;44.640;7.494;2023-02-01T00:32:05;5.40;99.90
39957;DHT22;48483;44.640;7.494;2023-02-01T00:34:32;5.40;99.90
39957;DHT22;48483;44.640;7.494;2023-02-01T00:37:00;5.40;99.90
39957;DHT22;48483;44.640;7.494;2023-02-01T00:39:26;5.30;99.90
39957;DHT22;48483;44.640;7.494;2023-02-01T00:41:53;5.30;99.90
39957;DHT22;48483;44.640;7.494;2023-02-01T00:44:19;5.30;99.90
39957;DHT22;48483;44.640;7.494;2023-02-01T00:46:46;5.30;99.90
39957;DHT22;48483;44.640;7.494;2023-02-01T00:49:12;5.30;99.90
39957;DHT22;48483;44.640;7.494;2023-02-01T00:51:39;5.20;99.90
39957;DHT22;48483;44.640;7.494;2023-02-01T00:54:07;5.10;99.90
39957;DHT22;48483;44.640;7.494;2023-02-01T00:56:33;5.10;99.90
39957;DHT22;48483;44.640;7.494;2023-02-01T00:59:00;5.10;99.90
39957;DHT22;48483;44.640;7.494;2023-02-01T01:01:27;5.10;99.90
39957;DHT22;48483;44.640;7.494;2023-02-01T01:03:56;5.10;99.90
39957;DHT22;48483;44.640;7.494;2023-02-01T01:06:25;5.00;99.90
39957;DHT22;48483;44.640;7.494;2023-02-01T01:08:52;5.00;99.90
39957;DHT22;48483;44.640;7.494;2023-02-01T01:11:23;5.00;99.90
39957;DHT22;48483;44.640;7.494;2023-02-01T01:13:52;5.00;99.90
39957;DHT22;48483;44.640;7.494;2023-02-01T01:16:20;4.90;99.90
39957;DHT22;48483;44.640;7.494;2023-02-01T01:18:47;4.90;99.90
39957;DHT22;48483;44.640;7.494;2023-02-01T01:21:15;4.90;99.90
39957;DHT22;48483;44.640;7.494;2023-02-01T01:23:43;4.90;99.90
39957;DHT22;48483;44.640;7.494;2023-02-01T01:26:12;4.80;99.90
39957;DHT22;48483;44.640;7.494;2023-02-01T01:28:41;4.80;99.90
39957;DHT22;48483;44.640;7.494;2023-02-01T01:31:08;4.80;99.90
39957;DHT22;48483;44.640;7.494;2023-02-01T01:33:34;4.90;99.90
39957;DHT22;48483;44.640;7.494;2023-02-01T01:36:01;4.80;99.90
39957;DHT22;48483;44.640;7.494;2023-02-01T01:38:27;4.80;99.90
39957;DHT22;48483;44.640;7.494;2023-02-01T01:40:54;4.80;99.90
39957;DHT22;48483;44.640;7.494;2023-02-01T01:43:20;4.70;99.90
39957;DHT22;48483;44.640;7.494;2023-02-01T01:45:51;4.70;99.90
39957;DHT22;48483;44.640;7.494;2023-02-01T01:48:22;4.80;99.90
39957;DHT22;48483;44.640;7.494;2023-02-01T01:50:56;4.80;99.90
39957;DHT22;48483;44.640;7.494;2023-02-01T01:53:27;4.80;99.90
39957;DHT22;48483;44.640;7.494;2023-02-01T01:55:55;4.80;99.90
39957;DHT22;48483;44.640;7.494;2023-02-01T01:58:25;4.80;99.90
39957;DHT22;48483;44.640;7.494;2023-02-01T02:00:54;4.70;99.90
39957;DHT22;48483;44.640;7.494;2023-02-01T02:03:25;4.70;99.90
39957;DHT22;48483;44.640;7.494;2023-02-01T02:05:56;4.70;99.90
39957;DHT22;48483;44.640;7.494;2023-02-01T02:08:25;4.70;99.90
39957;DHT22;48483;44.640;7.494;2023-02-01T02:10:53;4.80;99.90
39957;DHT22;48483;44.640;7.494;2023-02-01T02:13:27;4.80;99.90
39957;DHT22;48483;44.640;7.494;2023-02-01T02:16:13;4.80;99.90
39957;DHT22;48483;44.640;7.494;2023-02-01T02:18:49;4.80;99.90
39957;DHT22;48483;44.640;7.494;2023-02-01T02:21:33;4.80;99.90
39957;DHT22;48483;44.640;7.494;2023-02-01T02:24:41;4.80;99.90
39957;DHT22;48483;44.640;7.494;2023-02-01T02:27:21;4.90;99.90
39957;DHT22;48483;44.640;7.494;2023-02-01T02:33:39;4.90;99.90
39957;DHT22;48483;44.640;7.494;2023-02-01T02:36:10;5.00;99.90
39957;DHT22;48483;44.640;7.494;2023-02-01T02:38:45;5.00;99.90
39957;DHT22;48483;44.640;7.494;2023-02-01T02:41:16;5.10;99.90
39957;DHT22;48483;44.640;7.494;2023-02-01T02:44:11;5.20;99.90
39957;DHT22;48483;44.640;7.494;2023-02-01T02:47:03;5.30;99.90
39957;DHT22;48483;44.640;7.494;2023-02-01T02:49:58;5.30;99.90
39957;DHT22;48483;44.640;7.494;2023-02-01T02:52:49;5.30;99.90
39957;DHT22;48483;44.640;7.494;2023-02-01T02:55:36;5.40;99.90
39957;DHT22;48483;44.640;7.494;2023-02-01T02:58:05;5.40;99.90
39957;DHT22;48483;44.640;7.494;2023-02-01T03:00:53;5.40;99.90
39957;DHT22;48483;44.640;7.494;2023-02-01T03:03:40;5.40;99.90
39957;DHT22;48483;44.640;7.494;2023-02-01T03:06:27;5.40;99.90
39957;DHT22;48483;44.640;7.494;2023-02-01T03:08:57;5.50;99.90
39957;DHT22;48483;44.640;7.494;2023-02-01T03:11:25;5.50;99.90
39957;DHT22;48483;44.640;7.494;2023-02-01T03:14:14;5.50;99.90
39957;DHT22;48483;44.640;7.494;2023-02-01T03:16:46;5.50;99.90
39957;DHT22;48483;44.640;7.494;2023-02-01T03:19:17;5.50;99.90
39957;DHT22;48483;44.640;7.494;2023-02-01T03:21:49;5.50;99.90
39957;DHT22;48483;44.640;7.494;2023-02-01T03:24:20;5.50;99.90
39957;DHT22;48483;44.640;7.494;2023-02-01T03:26:53;5.50;99.90
39957;DHT22;48483;44.640;7.494;2023-02-01T03:29:27;5.50;99.90
39957;DHT22;48483;44.640;7.494;2023-02-01T03:31:56;5.50;99.90
39957;DHT22;48483;44.640;7.494;2023-02-01T03:34:22;5.50;99.90
39957;DHT22;48483;44.640;7.494;2023-02-01T03:36:52;5.60;99.90
39957;DHT22;48483;44.640;7.494;2023-02-01T03:39:27;5.60;99.90
39957;DHT22;48483;44.640;7.494;2023-02-01T03:41:59;5.60;99.90
39957;DHT22;48483;44.640;7.494;2023-02-01T03:44:30;5.60;99.90
39957;DHT22;48483;44.640;7.494;2023-02-01T03:47:02;5.60;99.90
39957;DHT22;48483;44.640;7.494;2023-02-01T03:49:33;5.50;99.90
39957;DHT22;48483;44.640;7.494;2023-02-01T03:52:06;5.60;99.90
39957;DHT22;48483;44.640;7.494;2023-02-01T03:54:35;5.50;99.90
39957;DHT22;48483;44.640;7.494;2023-02-01T03:57:06;5.50;99.90
39957;DHT22;48483;44.640;7.494;2023-02-01T03:59:38;5.50;99.90
39957;DHT22;48483;44.640;7.494;2023-02-01T04:02:05;5.50;99.90
39957;DHT22;48483;44.640;7.494;2023-02-01T04:04:31;5.50;99.90
39957;DHT22;48483;44.640;7.494;2023-02-01T04:06:58;5.50;99.90
39957;DHT22;48483;44.640;7.494;2023-02-01T04:09:26;5.50;99.90
39957;DHT22;48483;44.640;7.494;2023-02-01T04:11:53;5.50;99.90
39957;DHT22;48483;44.640;7.494;2023-02-01T04:14:19;5.50;99.90
39957;DHT22;48483;44.640;7.494;2023-02-01T04:16:46;5.50;99.90
39957;DHT22;48483;44.640;7.494;2023-02-01T04:19:12;5.50;99.90
39957;DHT22;48483;44.640;7.494;2023-02-01T04:21:39;5.50;99.90
39957;DHT22;48483;44.640;7.494;2023-02-01T04:24:06;5.50;99.90
39957;DHT22;48483;44.640;7.494;2023-02-01T04:26:34;5.60;99.90
39957;DHT22;48483;44.640;7.494;2023-02-01T04:29:01;5.60;99.90
39957;DHT22;48483;44.640;7.494;2023-02-01T04:31:27;5.60;99.90
39957;DHT22;48483;44.640;7.494;2023-02-01T04:33:55;5.60;99.90
39957;DHT22;48483;44.640;7.494;2023-02-01T04:36:23;5.60;99.90
39957;DHT22;48483;44.640;7.494;2023-02-01T04:38:51;5.50;99.90
39957;DHT22;48483;44.640;7.494;2023-02-01T04:41:17;5.40;99.90
39957;DHT22;48483;44.640;7.494;2023-02-01T04:43:50;5.40;99.90
39957;DHT22;48483;44.640;7.494;2023-02-01T04:46:18;5.30;99.90
39957;DHT22;48483;44.640;7.494;2023-02-01T04:48:45;5.20;99.90
39957;DHT22;48483;44.640;7.494;2023-02-01T04:51:12;5.10;99.90
39957;DHT22;48483;44.640;7.494;2023-02-01T04:53:38;5.10;99.90
39957;DHT22;48483;44.640;7.494;2023-02-01T04:56:06;5.00;99.90
39957;DHT22;48483;44.640;7.494;2023-02-01T04:58:32;5.00;99.90
39957;DHT22;48483;44.640;7.494;2023-02-01T05:01:02;4.90;99.90
39957;DHT22;48483;44.640;7.494;2023-02-01T05:03:30;4.90;99.90
39957;DHT22;48483;44.640;7.494;2023-02-01T05:05:57;4.80;99.90
39957;DHT22;48483;44.640;7.494;2023-02-01T05:08:23;4.80;99.90
39957;DHT22;48483;44.640;7.494;2023-02-01T05:10:51;4.80;99.90
39957;DHT22;48483;44.640;7.494;2023-02-01T05:13:18;4.70;99.90
39957;DHT22;48483;44.640;7.494;2023-02-01T05:16:15;4.70;99.90
39957;DHT22;48483;44.640;7.494;2023-02-01T05:18:42;4.70;99.90
39957;DHT22;48483;44.640;7.494;2023-02-01T05:21:08;4.60;99.90
39957;DHT22;48483;44.640;7.494;2023-02-01T05:23:35;4.60;99.90
39957;DHT22;48483;44.640;7.494;2023-02-01T05:26:21;4.50;99.90
39957;DHT22;48483;44.640;7.494;2023-02-01T05:28:48;4.50;99.90
39957;DHT22;48483;44.640;7.494;2023-02-01T05:31:16;4.50;99.90
39957;DHT22;48483;44.640;7.494;2023-02-01T05:33:42;4.50;99.90
39957;DHT22;48483;44.640;7.494;2023-02-01T05:36:09;4.40;99.90
39957;DHT22;48483;44.640;7.494;2023-02-01T05:38:35;4.40;99.90
39957;DHT22;48483;44.640;7.494;2023-02-01T05:41:02;4.40;99.90
39957;DHT22;48483;44.640;7.494;2023-02-01T05:43:29;4.40;99.90
39957;DHT22;48483;44.640;7.494;2023-02-01T05:45:55;4.30;99.90
39957;DHT22;48483;44.640;7.494;2023-02-01T05:48:23;4.30;99.90
39957;DHT22;48483;44.640;7.494;2023-02-01T05:50:50;4.30;99.90
39957;DHT22;48483;44.640;7.494;2023-02-01T05:53:16;4.30;99.90
39957;DHT22;48483;44.640;7.494;2023-02-01T05:55:43;4.30;99.90
39957;DHT22;48483;44.640;7.494;2023-02-01T05:58:09;4.40;99.90
39957;DHT22;48483;44.640;7.494;2023-02-01T06:00:36;4.40;99.90
39957;DHT22;48483;44.640;7.494;2023-02-01T06:03:02;4.40;99.90
39957;DHT22;48483;44.640;7.494;2023-02-01T06:05:30;4.30;99.90
39957;DHT22;48483;44.640;7.494;2023-02-01T06:07:57;4.30;99.90
39957;DHT22;48483;44.640;7.494;2023-02-01T06:10:24;4.30;99.90
39957;DHT22;48483;44.640;7.494;2023-02-01T06:12:50;4.30;99.90
39957;DHT22;48483;44.640;7.494;2023-02-01T06:15:17;4.40;99.90
39957;DHT22;48483;44.640;7.494;2023-02-01T06:17:45;4.40;99.90
39957;DHT22;48483;44.640;7.494;2023-02-01T06:20:13;4.30;99.90
39957;DHT22;48483;44.640;7.494;2023-02-01T06:22:42;4.40;99.90
39957;DHT22;48483;44.640;7.494;2023-02-01T06:25:09;4.40;99.90
39957;DHT22;48483;44.640;7.494;2023-02-01T06:27:36;4.40;99.90
39957;DHT22;48483;44.640;7.494;2023-02-01T06:30:04;4.40;99.90
39957;DHT22;48483;44.640;7.494;2023-02-01T06:32:31;4.40;99.90
39957;DHT22;48483;44.640;7.494;2023-02-01T06:34:57;4.30;99.90
39957;DHT22;48483;44.640;7.494;2023-02-01T06:37:24;4.30;99.90
39957;DHT22;48483;44.640;7.494;2023-02-01T06:39:58;4.30;99.90
39957;DHT22;48483;44.640;7.494;2023-02-01T06:42:24;4.40;99.90
39957;DHT22;48483;44.640;7.494;2023-02-01T06:44:51;4.40;99.90
39957;DHT22;48483;44.640;7.494;2023-02-01T06:47:18;4.40;99.90
39957;DHT22;48483;44.640;7.494;2023-02-01T06:49:44;4.40;99.90
39957;DHT22;48483;44.640;7.494;2023-02-01T06:52:11;4.30;99.90
39957;DHT22;48483;44.640;7.494;2023-02-01T06:54:38;4.30;99.90
39957;DHT22;48483;44.640;7.494;2023-02-01T06:57:06;4.40;99.90
39957;DHT22;48483;44.640;7.494;2023-02-01T06:59:32;4.30;99.90
39957;DHT22;48483;44.640;7.494;2023-02-01T07:01:59;4.40;99.90
39957;DHT22;48483;44.640;7.494;2023-02-01T07:04:25;4.40;99.90
39957;DHT22;48483;44.640;7.494;2023-02-01T07:06:52;4.40;99.90
39957;DHT22;48483;44.640;7.494;2023-02-01T07:09:18;4.40;99.90
39957;DHT22;48483;44.640;7.494;2023-02-01T07:11:45;4.50;99.90
39957;DHT22;48483;44.640;7.494;2023-02-01T07:14:13;4.50;99.90
39957;DHT22;48483;44.640;7.494;2023-02-01T07:16:39;4.60;99.90
39957;DHT22;48483;44.640;7.494;2023-02-01T07:19:06;4.60;99.90
39957;DHT22;48483;44.640;7.494;2023-02-01T07:21:32;4.60;99.90
39957;DHT22;48483;44.640;7.494;2023-02-01T07:23:59;4.70;99.90
39957;DHT22;48483;44.640;7.494;2023-02-01T07:26:26;4.80;99.90
39957;DHT22;48483;44.640;7.494;2023-02-01T07:28:52;4.90;99.90
39957;DHT22;48483;44.640;7.494;2023-02-01T07:31:20;4.90;99.90
39957;DHT22;48483;44.640;7.494;2023-02-01T07:33:48;5.00;99.90
39957;DHT22;48483;44.640;7.494;2023-02-01T07:36:18;5.00;99.90
39957;DHT22;48483;44.640;7.494;2023-02-01T07:38:45;5.10;99.90
39957;DHT22;48483;44.640;7.494;2023-02-01T07:41:13;5.20;99.90
39957;DHT22;48483;44.640;7.494;2023-02-01T07:43:40;5.20;99.90
39957;DHT22;48483;44.640;7.494;2023-02-01T07:46:07;5.30;99.90
39957;DHT22;48483;44.640;7.494;2023-02-01T07:48:35;5.30;99.90
39957;DHT22;48483;44.640;7.494;2023-02-01T07:51:03;5.40;99.90
39957;DHT22;48483;44.640;7.494;2023-02-01T07:53:31;5.50;99.90
39957;DHT22;48483;44.640;7.494;2023-02-01T07:55:58;5.60;99.90
39957;DHT22;48483;44.640;7.494;2023-02-01T07:58:26;5.60;99.90
39957;DHT22;48483;44.640;7.494;2023-02-01T08:00:52;5.70;99.90
39957;DHT22;48483;44.640;7.494;2023-02-01T08:03:39;5.80;99.90
39957;DHT22;48483;44.640;7.494;2023-02-01T08:06:06;5.90;99.90
39957;DHT22;48483;44.640;7.494;2023-02-01T08:08:32;5.90;99.90
39957;DHT22;48483;44.640;7.494;2023-02-01T08:10:59;5.90;99.90
39957;DHT22;48483;44.640;7.494;2023-02-01T08:13:26;6.00;99.90
39957;DHT22;48483;44.640;7.494;2023-02-01T08:15:57;6.00;99.90
39957;DHT22;48483;44.640;7.494;2023-02-01T08:18:24;6.00;99.90
39957;DHT22;48483;44.640;7.494;2023-02-01T08:20:52;6.10;99.90
39957;DHT22;48483;44.640;7.494;2023-02-01T08:23:19;6.20;99.90
39957;DHT22;48483;44.640;7.494;2023-02-01T08:25:45;6.20;99.90
39957;DHT22;48483;44.640;7.494;2023-02-01T08:28:12;6.30;99.90
39957;DHT22;48483;44.640;7.494;2023-02-01T08:30:40;6.40;99.90
39957;DHT22;48483;44.640;7.494;2023-02-01T08:33:08;6.50;99.90
39957;DHT22;48483;44.640;7.494;2023-02-01T08:35:36;6.50;99.90
39957;DHT22;48483;44.640;7.494;2023-02-01T08:38:04;6.60;99.90
39957;DHT22;48483;44.640;7.494;2023-02-01T08:40:31;6.70;99.90
39957;DHT22;48483;44.640;7.494;2023-02-01T08:42:58;6.80;99.90
39957;DHT22;48483;44.640;7.494;2023-02-01T08:45:28;6.80;99.90
39957;DHT22;48483;44.640;7.494;2023-02-01T08:47:56;6.90;99.90
39957;DHT22;48483;44.640;7.494;2023-02-01T08:50:23;7.10;99.90
39957;DHT22;48483;44.640;7.494;2023-02-01T08:52:51;7.20;99.90
39957;DHT22;48483;44.640;7.494;2023-02-01T08:55:19;7.30;99.90
39957;DHT22;48483;44.640;7.494;2023-02-01T08:57:46;7.40;99.90
39957;DHT22;48483;44.640;7.494;2023-02-01T09:00:15;7.40;99.90
39957;DHT22;48483;44.640;7.494;2023-02-01T09:02:42;7.50;99.90
39957;DHT22;48483;44.640;7.494;2023-02-01T09:05:09;7.50;99.90
39957;DHT22;48483;44.640;7.494;2023-02-01T09:07:37;7.60;99.90
39957;DHT22;48483;44.640;7.494;2023-02-01T09:10:04;7.60;99.90
39957;DHT22;48483;44.640;7.494;2023-02-01T09:12:33;7.70;99.90
39957;DHT22;48483;44.640;7.494;2023-02-01T09:15:00;7.70;99.90
39957;DHT22;48483;44.640;7.494;2023-02-01T09:17:28;7.80;99.90
39957;DHT22;48483;44.640;7.494;2023-02-01T09:19:54;7.80;99.90
39957;DHT22;48483;44.640;7.494;2023-02-01T09:22:21;7.90;99.90
39957;DHT22;48483;44.640;7.494;2023-02-01T09:24:48;8.00;99.90
39957;DHT22;48483;44.640;7.494;2023-02-01T09:27:14;8.00;99.90
39957;DHT22;48483;44.640;7.494;2023-02-01T09:29:42;8.10;99.90
39957;DHT22;48483;44.640;7.494;2023-02-01T09:32:08;8.00;99.90
39957;DHT22;48483;44.640;7.494;2023-02-01T09:34:35;8.00;99.90
39957;DHT22;48483;44.640;7.494;2023-02-01T09:37:02;8.10;99.90
39957;DHT22;48483;44.640;7.494;2023-02-01T09:39:29;8.00;99.90
39957;DHT22;48483;44.640;7.494;2023-02-01T09:41:59;8.00;99.90
39957;DHT22;48483;44.640;7.494;2023-02-01T09:47:25;8.10;99.90
39957;DHT22;48483;44.640;7.494;2023-02-01T09:49:57;8.20;99.90
39957;DHT22;48483;44.640;7.494;2023-02-01T09:52:29;8.20;99.90
39957;DHT22;48483;44.640;7.494;2023-02-01T09:55:00;8.20;99.90
39957;DHT22;48483;44.640;7.494;2023-02-01T09:57:40;8.30;99.90
39957;DHT22;48483;44.640;7.494;2023-02-01T10:00:15;8.30;99.90
39957;DHT22;48483;44.640;7.494;2023-02-01T10:02:43;8.40;99.90
39957;DHT22;48483;44.640;7.494;2023-02-01T10:05:13;8.40;99.90
39957;DHT22;48483;44.640;7.494;2023-02-01T10:07:42;8.40;99.90
39957;DHT22;48483;44.640;7.494;2023-02-01T10:10:14;8.50;99.90
39957;DHT22;48483;44.640;7.494;2023-02-01T10:13:13;8.60;99.90
39957;DHT22;48483;44.640;7.494;2023-02-01T10:15:54;8.60;99.90
39957;DHT22;48483;44.640;7.494;2023-02-01T10:18:33;8.70;99.90
39957;DHT22;48483;44.640;7.494;2023-02-01T10:21:07;8.70;99.90
39957;DHT22;48483;44.640;7.494;2023-02-01T10:23:49;8.80;99.90
39957;DHT22;48483;44.640;7.494;2023-02-01T10:26:22;8.80;99.90
39957;DHT22;48483;44.640;7.494;2023-02-01T10:28:50;8.90;99.90
39957;DHT22;48483;44.640;7.494;2023-02-01T10:31:18;9.00;99.90
39957;DHT22;48483;44.640;7.494;2023-02-01T10:33:48;9.00;99.90
39957;DHT22;48483;44.640;7.494;2023-02-01T10:36:18;9.10;99.90
39957;DHT22;48483;44.640;7.494;2023-02-01T10:38:46;9.20;99.90
39957;DHT22;48483;44.640;7.494;2023-02-01T10:41:15;9.20;99.90
39957;DHT22;48483;44.640;7.494;2023-02-01T10:43:42;9.30;99.90
39957;DHT22;48483;44.640;7.494;2023-02-01T10:46:09;9.40;99.90
39957;DHT22;48483;44.640;7.494;2023-02-01T10:48:37;9.50;99.90
39957;DHT22;48483;44.640;7.494;2023-02-01T10:51:10;9.50;99.90
39957;DHT22;48483;44.640;7.494;2023-02-01T10:53:42;9.60;99.90
39957;DHT22;48483;44.640;7.494;2023-02-01T10:56:11;9.70;99.90
39957;DHT22;48483;44.640;7.494;2023-02-01T10:58:44;9.70;99.90
39957;DHT22;48483;44.640;7.494;2023-02-01T11:01:16;9.80;99.90
39957;DHT22;48483;44.640;7.494;2023-02-01T11:03:46;9.80;99.90
39957;DHT22;48483;44.640;7.494;2023-02-01T11:06:24;9.90;99.90
39957;DHT22;48483;44.640;7.494;2023-02-01T11:08:53;10.00;99.90
39957;DHT22;48483;44.640;7.494;2023-02-01T11:11:21;10.00;99.90
39957;DHT22;48483;44.640;7.494;2023-02-01T11:13:53;10.10;99.90
39957;DHT22;48483;44.640;7.494;2023-02-01T11:16:20;10.20;99.10
39957;DHT22;48483;44.640;7.494;2023-02-01T11:18:53;10.20;98.60
39957;DHT22;48483;44.640;7.494;2023-02-01T11:21:22;10.30;98.20
39957;DHT22;48483;44.640;7.494;2023-02-01T11:23:49;10.30;98.10
39957;DHT22;48483;44.640;7.494;2023-02-01T11:26:21;10.40;97.40
39957;DHT22;48483;44.640;7.494;2023-02-01T11:28:53;10.50;96.50
39957;DHT22;48483;44.640;7.494;2023-02-01T11:31:20;10.50;95.70
39957;DHT22;48483;44.640;7.494;2023-02-01T11:33:50;10.50;95.50
39957;DHT22;48483;44.640;7.494;2023-02-01T11:36:20;10.60;95.60
39957;DHT22;48483;44.640;7.494;2023-02-01T11:38:52;10.60;95.80
39957;DHT22;48483;44.640;7.494;2023-02-01T11:41:22;10.60;96.40
39957;DHT22;48483;44.640;7.494;2023-02-01T11:43:55;10.60;98.50
39957;DHT22;48483;44.640;7.494;2023-02-01T11:46:26;10.70;99.90
39957;DHT22;48483;44.640;7.494;2023-02-01T11:48:54;10.60;99.90
39957;DHT22;48483;44.640;7.494;2023-02-01T11:51:31;10.60;99.90
39957;DHT22;48483;44.640;7.494;2023-02-01T11:54:25;10.60;99.90
39957;DHT22;48483;44.640;7.494;2023-02-01T11:57:12;10.60;99.90
39957;DHT22;48483;44.640;7.494;2023-02-01T12:03:06;10.60;99.90
39957;DHT22;48483;44.640;7.494;2023-02-01T12:05:46;10.60;99.90
39957;DHT22;48483;44.640;7.494;2023-02-01T12:08:25;10.60;99.90
39957;DHT22;48483;44.640;7.494;2023-02-01T12:11:06;10.60;99.90
39957;DHT22;48483;44.640;7.494;2023-02-01T12:13:45;10.60;99.90
39957;DHT22;48483;44.640;7.494;2023-02-01T12:16:22;10.60;99.90
39957;DHT22;48483;44.640;7.494;2023-02-01T12:19:15;10.60;99.90
39957;DHT22;48483;44.640;7.494;2023-02-01T12:22:14;10.60;99.90
39957;DHT22;48483;44.640;7.494;2023-02-01T12:27:59;10.60;99.90
39957;DHT22;48483;44.640;7.494;2023-02-01T12:30:58;10.70;99.90
39957;DHT22;48483;44.640;7.494;2023-02-01T12:33:42;10.70;99.90
39957;DHT22;48483;44.640;7.494;2023-02-01T12:36:15;10.70;99.90
39957;DHT22;48483;44.640;7.494;2023-02-01T12:38:50;10.70;99.90
39957;DHT22;48483;44.640;7.494;2023-02-01T12:41:35;10.70;99.90
39957;DHT22;48483;44.640;7.494;2023-02-01T12:44:10;10.80;99.90
39957;DHT22;48483;44.640;7.494;2023-02-01T12:46:41;10.80;99.90
39957;DHT22;48483;44.640;7.494;2023-02-01T12:49:14;10.80;99.90
39957;DHT22;48483;44.640;7.494;2023-02-01T12:51:45;10.90;99.90
39957;DHT22;48483;44.640;7.494;2023-02-01T12:54:16;10.90;99.90
39957;DHT22;48483;44.640;7.494;2023-02-01T12:56:48;10.90;99.20
39957;DHT22;48483;44.640;7.494;2023-02-01T12:59:38;11.00;99.20
39957;DHT22;48483;44.640;7.494;2023-02-01T13:02:14;11.10;99.10
39957;DHT22;48483;44.640;7.494;2023-02-01T13:04:53;11.10;99.00
39957;DHT22;48483;44.640;7.494;2023-02-01T13:07:25;11.20;99.40
39957;DHT22;48483;44.640;7.494;2023-02-01T13:09:57;11.20;99.20
39957;DHT22;48483;44.640;7.494;2023-02-01T13:12:29;11.20;99.10
39957;DHT22;48483;44.640;7.494;2023-02-01T13:15:03;11.30;98.40
39957;DHT22;48483;44.640;7.494;2023-02-01T13:17:32;11.30;98.80
39957;DHT22;48483;44.640;7.494;2023-02-01T13:20:03;11.30;98.10
39957;DHT22;48483;44.640;7.494;2023-02-01T13:22:32;11.40;97.90
39957;DHT22;48483;44.640;7.494;2023-02-01T13:25:03;11.40;96.50
39957;DHT22;48483;44.640;7.494;2023-02-01T13:27:31;11.50;96.00
39957;DHT22;48483;44.640;7.494;2023-02-01T13:30:02;11.50;95.60
39957;DHT22;48483;44.640;7.494;2023-02-01T13:33:01;11.50;95.00
39957;DHT22;48483;44.640;7.494;2023-02-01T13:35:50;11.60;94.80
39957;DHT22;48483;44.640;7.494;2023-02-01T13:38:43;11.60;94.70
39957;DHT22;48483;44.640;7.494;2023-02-01T13:41:24;11.60;94.60
39957;DHT22;48483;44.640;7.494;2023-02-01T13:43:54;11.60;93.40
39957;DHT22;48483;44.640;7.494;2023-02-01T13:46:23;11.70;92.10
39957;DHT22;48483;44.640;7.494;2023-02-01T13:48:51;11.80;91.70
39957;DHT22;48483;44.640;7.494;2023-02-01T13:51:29;11.80;91.20
39957;DHT22;48483;44.640;7.494;2023-02-01T13:53:58;11.90;90.90
39957;DHT22;48483;44.640;7.494;2023-02-01T13:56:25;11.90;91.10
39957;DHT22;48483;44.640;7.494;2023-02-01T13:58:52;12.00;91.40
39957;DHT22;48483;44.640;7.494;2023-02-01T14:01:44;12.00;92.00
39957;DHT22;48483;44.640;7.494;2023-02-01T14:04:46;12.00;92.30
39957;DHT22;48483;44.640;7.494;2023-02-01T14:07:19;12.00;92.20
39957;DHT22;48483;44.640;7.494;2023-02-01T14:09:46;12.00;92.10
39957;DHT22;48483;44.640;7.494;2023-02-01T14:12:46;12.10;91.90
39957;DHT22;48483;44.640;7.494;2023-02-01T14:15:21;12.10;91.60
39957;DHT22;48483;44.640;7.494;2023-02-01T14:17:50;12.10;91.20
39957;DHT22;48483;44.640;7.494;2023-02-01T14:20:45;12.10;91.60
39957;DHT22;48483;44.640;7.494;2023-02-01T14:23:19;12.10;91.40
39957;DHT22;48483;44.640;7.494;2023-02-01T14:25:58;12.10;91.20
39957;DHT22;48483;44.640;7.494;2023-02-01T14:28:29;12.20;90.90
39957;DHT22;48483;44.640;7.494;2023-02-01T14:30:57;12.20;90.80
39957;DHT22;48483;44.640;7.494;2023-02-01T14:33:27;12.20;90.70
39957;DHT22;48483;44.640;7.494;2023-02-01T14:36:04;12.30;90.50
39957;DHT22;48483;44.640;7.494;2023-02-01T14:38:32;12.30;90.50
39957;DHT22;48483;44.640;7.494;2023-02-01T14:44:27;12.30;90.30
39957;DHT22;48483;44.640;7.494;2023-02-01T14:52:47;12.20;92.80
39957;DHT22;48483;44.640;7.494;2023-02-01T14:55:19;12.10;93.70
39957;DHT22;48483;44.640;7.494;2023-02-01T14:57:50;12.10;94.20
39957;DHT22;48483;44.640;7.494;2023-02-01T15:00:22;12.00;94.50
39957;DHT22;48483;44.640;7.494;2023-02-01T15:02:50;12.00;94.70
39957;DHT22;48483;44.640;7.494;2023-02-01T15:05:27;12.00;94.50
39957;DHT22;48483;44.640;7.494;2023-02-01T15:07:59;12.00;93.70
39957;DHT22;48483;44.640;7.494;2023-02-01T15:10:27;12.00;93.10
39957;DHT22;48483;44.640;7.494;2023-02-01T15:12:56;11.90;92.60
39957;DHT22;48483;44.640;7.494;2023-02-01T15:15:23;11.90;91.80
39957;DHT22;48483;44.640;7.494;2023-02-01T15:17:52;11.90;91.30
39957;DHT22;48483;44.640;7.494;2023-02-01T15:20:20;11.90;91.60
39957;DHT22;48483;44.640;7.494;2023-02-01T15:22:56;11.90;91.90
39957;DHT22;48483;44.640;7.494;2023-02-01T15:25:25;11.90;92.20
39957;DHT22;48483;44.640;7.494;2023-02-01T15:27:52;11.80;92.30
39957;DHT22;48483;44.640;7.494;2023-02-01T15:30:21;11.80;92.10
39957;DHT22;48483;44.640;7.494;2023-02-01T15:32:49;11.80;92.10
39957;DHT22;48483;44.640;7.494;2023-02-01T15:35:46;11.70;92.10
39957;DHT22;48483;44.640;7.494;2023-02-01T15:38:37;11.60;91.90
39957;DHT22;48483;44.640;7.494;2023-02-01T15:41:13;11.60;92.30
39957;DHT22;48483;44.640;7.494;2023-02-01T15:43:42;11.60;92.30
39957;DHT22;48483;44.640;7.494;2023-02-01T15:46:12;11.50;92.30
39957;DHT22;48483;44.640;7.494;2023-02-01T15:48:43;11.50;92.40
39957;DHT22;48483;44.640;7.494;2023-02-01T15:51:17;11.50;91.90
39957;DHT22;48483;44.640;7.494;2023-02-01T15:53:48;11.40;92.20
39957;DHT22;48483;44.640;7.494;2023-02-01T15:56:15;11.40;92.40
39957;DHT22;48483;44.640;7.494;2023-02-01T15:58:44;11.30;92.60
39957;DHT22;48483;44.640;7.494;2023-02-01T16:01:13;11.30;92.70
39957;DHT22;48483;44.640;7.494;2023-02-01T16:03:42;11.20;92.80
39957;DHT22;48483;44.640;7.494;2023-02-01T16:06:10;11.20;93.30
39957;DHT22;48483;44.640;7.494;2023-02-01T16:08:48;11.10;93.90
39957;DHT22;48483;44.640;7.494;2023-02-01T16:11:22;11.00;94.50
39957;DHT22;48483;44.640;7.494;2023-02-01T16:13:49;11.00;94.70
39957;DHT22;48483;44.640;7.494;2023-02-01T16:16:16;10.90;95.50
39957;DHT22;48483;44.640;7.494;2023-02-01T16:18:43;10.70;96.40
39957;DHT22;48483;44.640;7.494;2023-02-01T16:21:11;10.60;97.00
39957;DHT22;48483;44.640;7.494;2023-02-01T16:23:38;10.50;97.10
39957;DHT22;48483;44.640;7.494;2023-02-01T16:26:05;10.50;97.30
39957;DHT22;48483;44.640;7.494;2023-02-01T16:28:33;10.40;97.10